Time;durP1;ratioP1;P1;durP2;ratioP2;P2;SDS_P1;SDS_P2;PMS_P1;PMS_P2;Temp;Humidity;BMP_temperature;BMP_pressure;BME280_temperature;BME280_humidity;BME280_pressure;Samples;Min_cycle;Max_cycle;Signal;HPM_P1;HPM_P2
2022/08/30 00:01:01;;;;;;;6.18;3.63;;;;;;;19.32;69.58;102271.38;6132809;23;20400;-77
2022/08/30 00:01:59;;;;;;;5.63;3.40;;;;;;;19.34;68.93;102269.59;6136428;23;20129;-77
2022/08/30 00:04:25;;;;;;;6.35;3.38;;;;;;;19.44;68.42;102274.91;6130844;23;20084;-77
2022/08/30 00:06:51;;;;;;;6.32;3.42;;;;;;;19.37;69.18;102273.13;6135303;23;20044;-78
2022/08/30 00:09:16;;;;;;;5.88;3.38;;;;;;;19.48;68.66;102270.50;6136718;23;20404;-78
2022/08/30 00:11:42;;;;;;;6.13;3.30;;;;;;;19.32;69.04;102268.72;6131674;23;20080;-79
2022/08/30 00:14:07;;;;;;;5.65;3.03;;;;;;;19.34;69.23;102267.84;6135639;23;20445;-79
2022/08/30 00:16:32;;;;;;;6.80;3.50;;;;;;;19.42;68.83;102270.47;6142225;23;20076;-78
2022/08/30 00:18:58;;;;;;;6.63;3.38;;;;;;;19.34;69.15;102259.91;6131842;23;20400;-78
2022/08/30 00:21:25;;;;;;;7.18;3.50;;;;;;;19.41;68.79;102258.13;6134938;23;20172;-77
2022/08/30 00:23:51;;;;;;;6.15;3.17;;;;;;;19.33;68.70;102257.28;6134864;23;20094;-78
2022/08/30 00:26:16;;;;;;;7.28;3.20;;;;;;;19.12;69.60;102254.63;6134901;23;20785;-77
2022/08/30 00:28:42;;;;;;;6.18;3.28;;;;;;;19.12;69.74;102246.69;6139110;23;20009;-77
2022/08/30 00:31:07;;;;;;;5.25;3.40;;;;;;;19.19;69.90;102253.75;6134549;23;20052;-78
2022/08/30 00:33:33;;;;;;;8.23;3.20;;;;;;;19.39;68.84;102252.84;6153739;23;20012;-78
2022/08/30 00:35:59;;;;;;;4.43;2.88;;;;;;;19.32;68.86;102261.69;6138701;23;20024;-80
2022/08/30 00:38:25;;;;;;;7.68;3.55;;;;;;;19.29;69.45;102271.38;6126264;23;20004;-77
2022/08/30 00:40:51;;;;;;;6.03;3.30;;;;;;;19.23;69.65;102264.31;6136683;23;20001;-77
2022/08/30 00:43:23;;;;;;;5.85;3.33;;;;;;;19.21;69.56;102275.78;6127976;23;20441;-75
2022/08/30 00:45:49;;;;;;;4.85;3.28;;;;;;;19.34;69.12;102265.19;6162750;23;20467;-79
2022/08/30 00:48:15;;;;;;;5.95;3.33;;;;;;;19.31;68.95;102262.56;6130581;23;20331;-77
2022/08/30 00:50:52;;;;;;;5.45;3.20;;;;;;;19.32;69.41;102259.03;6142634;23;20000;-77
2022/08/30 00:53:25;;;;;;;8.68;3.30;;;;;;;19.15;69.62;102265.22;6135257;23;20017;-78
2022/08/30 00:55:52;;;;;;;5.68;3.22;;;;;;;19.37;68.63;102261.66;6137554;23;20040;-79
2022/08/30 00:58:24;;;;;;;6.20;3.38;;;;;;;19.27;69.04;102265.22;6135367;23;20480;-79
2022/08/30 01:00:53;;;;;;;4.40;3.30;;;;;;;19.14;69.58;102266.09;6134725;23;20019;-77
2022/08/30 01:03:19;;;;;;;4.97;3.30;;;;;;;19.12;69.71;102258.16;6131903;23;20092;-77
2022/08/30 01:05:48;;;;;;;5.93;3.60;;;;;;;19.20;69.54;102261.69;6133334;23;20334;-78
2022/08/30 01:08:14;;;;;;;5.13;3.45;;;;;;;19.08;69.89;102264.34;6132269;23;20128;-78
2022/08/30 01:10:40;;;;;;;6.03;3.40;;;;;;;18.96;70.51;102259.91;6164477;23;20484;-78
2022/08/30 01:13:08;;;;;;;7.68;3.30;;;;;;;19.24;69.66;102254.63;6145972;23;20041;-78
2022/08/30 01:15:34;;;;;;;8.27;3.60;;;;;;;19.15;70.19;102266.06;6131650;23;20005;-76
2022/08/30 01:18:01;;;;;;;6.32;3.40;;;;;;;19.07;70.46;102265.22;6121036;23;20013;-77
2022/08/30 01:20:36;;;;;;;6.18;3.55;;;;;;;19.17;69.87;102264.31;6139101;23;20028;-78
2022/08/30 01:23:08;;;;;;;7.20;3.83;;;;;;;19.03;70.60;102266.94;6135916;23;20659;-78
2022/08/30 01:25:36;;;;;;;6.20;3.70;;;;;;;19.29;69.61;102272.25;6128077;23;20013;-78
2022/08/30 01:28:09;;;;;;;6.57;3.83;;;;;;;19.33;69.31;102266.06;6140056;23;20001;-78
2022/08/30 01:30:37;;;;;;;6.25;3.70;;;;;;;19.34;69.23;102265.19;6130428;23;20358;-79
2022/08/30 01:33:04;;;;;;;5.90;3.40;;;;;;;19.36;68.55;102271.38;6139923;23;20044;-79
2022/08/30 01:35:37;;;;;;;7.18;4.00;;;;;;;19.23;69.73;102268.72;6128081;23;20517;-79
2022/08/30 01:38:04;;;;;;;6.43;3.67;;;;;;;19.33;69.19;102266.06;6135921;23;20393;-79
2022/08/30 01:40:29;;;;;;;6.70;3.72;;;;;;;19.27;69.08;102275.78;6131801;23;20015;-79
2022/08/30 01:42:54;;;;;;;6.30;3.95;;;;;;;19.19;69.29;102274.91;6129889;23;20013;-79
2022/08/30 01:45:20;;;;;;;7.13;4.00;;;;;;;19.12;70.04;102265.19;6138196;23;20405;-78
2022/08/30 01:47:45;;;;;;;6.88;3.70;;;;;;;19.28;69.34;102259.91;6130335;23;20437;-78
2022/08/30 01:50:11;;;;;;;5.85;3.78;;;;;;;19.32;68.93;102266.97;6137985;23;20004;-78
2022/08/30 01:52:37;;;;;;;6.75;4.05;;;;;;;18.95;70.24;102257.28;6132751;23;20011;-78
2022/08/30 01:55:05;;;;;;;5.25;3.95;;;;;;;19.07;69.77;102261.69;6131679;23;20020;-78
2022/08/30 01:57:31;;;;;;;8.88;4.00;;;;;;;19.02;70.04;102261.69;6130975;23;20455;-78
2022/08/30 01:59:56;;;;;;;7.20;4.40;;;;;;;19.06;69.85;102260.78;6135068;23;20016;-78
2022/08/30 02:02:25;;;;;;;6.57;4.15;;;;;;;19.13;69.41;102261.69;6138632;23;20020;-78
2022/08/30 02:04:52;;;;;;;6.45;4.00;;;;;;;19.08;69.47;102259.03;6137463;23;20067;-78
2022/08/30 02:07:22;;;;;;;7.53;4.40;;;;;;;18.96;69.77;102265.22;6132708;23;20032;-79
2022/08/30 02:09:51;;;;;;;6.75;4.25;;;;;;;18.89;70.22;102267.84;6154237;23;20921;-79
2022/08/30 02:12:19;;;;;;;9.82;4.90;;;;;;;18.82;69.87;102266.94;6136385;23;20017;-79
2022/08/30 02:14:44;;;;;;;8.60;4.70;;;;;;;18.93;69.63;102274.88;6135889;23;20009;-78
2022/08/30 02:17:12;;;;;;;9.98;4.60;;;;;;;18.85;69.68;102272.22;6138395;23;20031;-78
2022/08/30 02:19:38;;;;;;;6.40;4.85;;;;;;;18.70;70.55;102268.69;6134114;23;20013;-78
2022/08/30 02:22:07;;;;;;;7.95;4.60;;;;;;;18.88;69.58;102266.06;6139793;23;20020;-79
2022/08/30 02:24:33;;;;;;;9.15;4.80;;;;;;;18.88;69.42;102266.06;6128719;23;20012;-80
2022/08/30 02:26:58;;;;;;;6.25;4.72;;;;;;;18.88;69.35;102264.31;6134730;23;20016;-79
2022/08/30 02:29:25;;;;;;;6.40;4.55;;;;;;;18.90;69.10;102257.28;6133597;23;20005;-78
2022/08/30 02:31:51;;;;;;;6.05;4.75;;;;;;;18.87;69.02;102267.81;6134907;23;20044;-78
2022/08/30 02:34:17;;;;;;;7.38;5.10;;;;;;;18.82;69.26;102266.06;6139802;23;20012;-78
2022/08/30 02:36:43;;;;;;;6.97;4.80;;;;;;;18.97;68.53;102260.78;6143259;23;20453;-78
2022/08/30 02:39:10;;;;;;;8.68;5.40;;;;;;;18.75;69.48;102264.28;6136028;23;20001;-80
2022/08/30 02:41:37;;;;;;;8.50;5.30;;;;;;;18.85;68.86;102256.34;6135302;23;20381;-79
2022/08/30 02:44:02;;;;;;;7.65;5.07;;;;;;;18.84;68.84;102251.97;6138687;23;20155;-79
2022/08/30 02:46:28;;;;;;;8.23;5.63;;;;;;;18.79;68.89;102253.72;6136940;23;20231;-79
2022/08/30 02:48:54;;;;;;;7.72;5.60;;;;;;;18.77;68.97;102257.25;6135798;23;20450;-79
2022/08/30 02:51:19;;;;;;;10.57;5.75;;;;;;;18.62;69.31;102244.88;6137078;23;20396;-80
2022/08/30 02:53:45;;;;;;;7.45;5.60;;;;;;;18.67;69.48;102253.69;6132306;23;20249;-78
2022/08/30 02:56:12;;;;;;;6.53;5.50;;;;;;;18.74;68.93;102244.91;6138172;23;20321;-79
2022/08/30 02:58:41;;;;;;;7.90;5.72;;;;;;;18.49;69.84;102250.97;6142115;23;20005;-78
2022/08/30 03:01:08;;;;;;;10.07;6.22;;;;;;;18.55;69.56;102248.38;6136506;23;20063;-78
2022/08/30 03:03:39;;;;;;;11.25;6.15;;;;;;;18.60;69.40;102254.59;6130995;23;20755;-77
2022/08/30 03:06:05;;;;;;;9.68;6.60;;;;;;;18.59;69.34;102252.81;6155020;23;20009;-77
2022/08/30 03:08:31;;;;;;;9.65;6.20;;;;;;;18.56;69.23;102250.16;6137988;23;20005;-79
2022/08/30 03:10:57;;;;;;;8.15;6.70;;;;;;;18.51;69.58;102247.47;6132449;23;20718;-78
2022/08/30 03:13:25;;;;;;;8.82;6.10;;;;;;;18.64;68.74;102245.78;6132467;23;20052;-78
2022/08/30 03:15:51;;;;;;;8.98;5.97;;;;;;;18.65;68.37;102247.53;6133426;23;20907;-77
2022/08/30 03:18:17;;;;;;;7.65;6.53;;;;;;;18.62;68.53;102244.88;6139536;23;20092;-79
2022/08/30 03:20:42;;;;;;;9.48;6.95;;;;;;;18.44;69.60;102250.09;6137976;23;20361;-77
2022/08/30 03:23:08;;;;;;;9.73;6.32;;;;;;;18.54;69.16;102246.59;6141279;23;20009;-80
2022/08/30 03:25:33;;;;;;;11.25;6.80;;;;;;;18.48;69.52;102239.53;6132909;23;20037;-79
2022/08/30 03:27:59;;;;;;;8.68;6.80;;;;;;;18.50;69.15;102239.53;6142134;23;20528;-79
2022/08/30 03:30:24;;;;;;;9.45;6.85;;;;;;;18.30;69.78;102230.69;6135056;23;20009;-78
2022/08/30 03:32:50;;;;;;;9.45;6.50;;;;;;;18.50;69.16;102236.91;6139462;23;20051;-78
2022/08/30 03:35:16;;;;;;;8.68;7.00;;;;;;;18.28;69.38;102233.31;6140935;23;20117;-79
2022/08/30 03:37:43;;;;;;;11.73;7.20;;;;;;;18.45;68.96;102236.00;6129003;23;20084;-79
2022/08/30 03:40:09;;;;;;;11.57;7.35;;;;;;;18.38;69.08;102237.75;6143806;23;20028;-79
2022/08/30 03:42:35;;;;;;;10.88;7.07;;;;;;;18.46;69.31;102232.50;6132075;23;20092;-78
2022/08/30 03:45:01;;;;;;;9.10;7.22;;;;;;;18.43;69.45;102229.84;6137557;23;20009;-78
2022/08/30 03:47:27;;;;;;;12.85;7.22;;;;;;;18.30;69.88;102236.84;6123690;23;20096;-78
2022/08/30 03:49:53;;;;;;;10.63;7.53;;;;;;;18.33;69.72;102235.97;6138568;23;20009;-80
2022/08/30 03:52:18;;;;;;;9.93;7.38;;;;;;;18.35;69.51;102242.16;6133824;23;20421;-80
2022/08/30 03:54:44;;;;;;;9.68;6.95;;;;;;;18.34;69.59;102237.75;6131799;23;20009;-78
2022/08/30 03:57:09;;;;;;;9.95;7.13;;;;;;;18.34;69.78;102227.19;6135913;23;20019;-78
2022/08/30 03:59:34;;;;;;;8.15;6.50;;;;;;;18.37;69.21;102230.69;6132598;23;20005;-78
2022/08/30 04:02:00;;;;;;;12.90;7.47;;;;;;;18.37;69.38;102233.34;6139208;23;20009;-79
2022/08/30 04:04:25;;;;;;;9.98;7.55;;;;;;;18.16;70.37;102233.28;6140871;23;20013;-78
2022/08/30 04:06:51;;;;;;;9.57;7.13;;;;;;;18.29;69.64;102231.56;6128865;23;20013;-78
2022/08/30 04:09:18;;;;;;;10.38;7.05;;;;;;;18.29;69.49;102229.81;6142013;23;20425;-79
2022/08/30 04:11:43;;;;;;;11.48;7.70;;;;;;;18.17;70.61;102228.03;6127674;23;20273;-79
2022/08/30 04:14:08;;;;;;;10.88;7.88;;;;;;;18.23;70.29;102227.16;6142341;23;20013;-77
2022/08/30 04:16:35;;;;;;;10.52;7.32;;;;;;;18.22;70.30;102233.31;6140692;23;20405;-79
2022/08/30 04:19:00;;;;;;;12.02;7.50;;;;;;;18.26;69.96;102237.72;6135207;23;20012;-79
2022/08/30 04:21:27;;;;;;;10.98;8.23;;;;;;;18.07;71.08;102228.84;6136794;23;20316;-78
2022/08/30 04:23:52;;;;;;;9.80;7.57;;;;;;;18.08;70.75;102229.72;6136468;23;20047;-79
2022/08/30 04:26:17;;;;;;;13.93;8.02;;;;;;;17.94;71.73;102231.41;6138427;23;20433;-78
2022/08/30 04:28:43;;;;;;;11.35;8.10;;;;;;;17.96;72.01;102234.94;6138913;23;20604;-78
2022/08/30 04:31:10;;;;;;;10.18;7.80;;;;;;;18.04;71.95;102228.84;6136791;23;20067;-77
2022/08/30 04:33:36;;;;;;;11.52;8.13;;;;;;;18.05;71.79;102224.44;6134829;23;20345;-79
2022/08/30 04:36:04;;;;;;;10.80;7.70;;;;;;;18.18;71.09;102227.13;6126135;23;20012;-78
2022/08/30 04:38:31;;;;;;;13.23;8.55;;;;;;;18.17;71.18;102229.78;6137069;23;20005;-77
2022/08/30 04:40:56;;;;;;;10.88;7.85;;;;;;;18.22;70.73;102236.84;6136849;23;20063;-78
2022/08/30 04:43:25;;;;;;;10.57;7.72;;;;;;;18.23;70.59;102241.25;6138408;23;20013;-78
2022/08/30 04:45:53;;;;;;;10.93;7.93;;;;;;;18.25;70.22;102246.50;6130292;23;20059;-78
2022/08/30 04:48:21;;;;;;;10.57;8.30;;;;;;;17.95;71.87;102249.00;6140306;23;20013;-79
2022/08/30 04:50:47;;;;;;;14.27;8.68;;;;;;;17.79;72.36;102245.44;6136354;23;20303;-78
2022/08/30 04:53:13;;;;;;;11.02;8.30;;;;;;;17.90;72.21;102249.00;6140001;23;20012;-80
2022/08/30 04:55:42;;;;;;;13.43;8.45;;;;;;;18.03;71.55;102249.94;6125648;23;20012;-78
2022/08/30 04:58:07;;;;;;;14.40;8.75;;;;;;;17.72;72.44;102262.97;6138431;23;20528;-79
2022/08/30 05:00:33;;;;;;;12.15;8.40;;;;;;;18.04;71.53;102260.50;6129091;23;20397;-78
2022/08/30 05:02:59;;;;;;;11.35;8.18;;;;;;;18.02;71.38;102264.88;6134542;23;20044;-78
2022/08/30 05:05:40;;;;;;;10.27;7.85;;;;;;;18.13;70.63;102264.94;6136243;23;20525;-78
2022/08/30 05:08:12;;;;;;;10.50;8.00;;;;;;;18.16;70.45;102265.84;6142105;23;20008;-79
2022/08/30 05:10:40;;;;;;;13.90;8.25;;;;;;;18.12;70.71;102271.06;6135307;23;20337;-79
2022/08/30 05:13:06;;;;;;;10.68;8.05;;;;;;;18.14;70.65;102270.22;6155878;23;20118;-78
2022/08/30 05:15:32;;;;;;;11.65;7.97;;;;;;;17.96;71.52;102270.13;6131272;23;20005;-78
2022/08/30 05:17:58;;;;;;;13.52;8.25;;;;;;;17.80;71.86;102277.09;6130922;23;20067;-79
2022/08/30 05:20:23;;;;;;;12.57;8.15;;;;;;;18.10;71.11;102283.41;6140689;23;20321;-79
2022/08/30 05:22:50;;;;;;;10.48;7.88;;;;;;;18.23;70.61;102278.19;6137531;23;20009;-78
2022/08/30 05:25:25;;;;;;;13.07;7.70;;;;;;;18.36;70.29;102280.88;6132133;23;20013;-78
2022/08/30 05:27:52;;;;;;;11.35;8.05;;;;;;;18.34;70.05;102283.50;6134039;23;20005;-79
2022/08/30 05:30:18;;;;;;;11.43;7.63;;;;;;;18.38;70.20;102282.63;6137487;23;20013;-79
2022/08/30 05:32:44;;;;;;;12.57;8.00;;;;;;;18.40;69.84;102287.94;6134888;23;20305;-78
2022/08/30 05:35:15;;;;;;;12.55;7.88;;;;;;;18.45;70.02;102292.34;6139618;23;20009;-78
2022/08/30 05:37:41;;;;;;;9.55;7.60;;;;;;;18.57;69.55;102287.13;6128237;23;20357;-78
2022/08/30 05:40:07;;;;;;;9.80;7.10;;;;;;;18.58;69.74;102294.19;6141610;23;20083;-78
2022/08/30 05:42:34;;;;;;;12.05;8.27;;;;;;;18.36;70.19;102291.44;6129419;23;20096;-77
2022/08/30 05:45:00;;;;;;;12.80;7.63;;;;;;;18.38;70.39;102297.59;6138768;23;20008;-78
2022/08/30 05:47:26;;;;;;;10.85;7.43;;;;;;;18.60;69.93;102288.91;6128298;23;20285;-77
2022/08/30 05:49:51;;;;;;;10.70;7.82;;;;;;;18.67;69.78;102290.69;6143058;23;20144;-78
2022/08/30 05:52:17;;;;;;;11.02;7.85;;;;;;;18.64;69.69;102285.41;6133125;23;20922;-77
2022/08/30 05:54:54;;;;;;;11.60;7.82;;;;;;;18.68;69.41;102284.53;6128809;23;20025;-77
2022/08/30 05:57:22;;;;;;;11.98;7.45;;;;;;;18.79;68.96;102285.41;6137418;23;20409;-77
2022/08/30 05:59:48;;;;;;;12.02;7.88;;;;;;;18.52;70.10;102287.97;6129276;23;20452;-76
2022/08/30 06:02:14;;;;;;;10.90;7.63;;;;;;;18.90;69.05;102291.63;6137140;23;20032;-76
2022/08/30 06:04:39;;;;;;;10.73;7.47;;;;;;;18.91;68.52;102285.44;6140131;23;20017;-78
2022/08/30 06:07:05;;;;;;;10.48;7.80;;;;;;;19.05;68.13;102289.00;6135472;23;20068;-81
2022/08/30 06:09:31;;;;;;;10.30;7.60;;;;;;;19.19;68.11;102293.41;6127619;23;20322;-79
2022/08/30 06:11:56;;;;;;;11.43;7.40;;;;;;;19.17;67.75;102287.22;6131082;23;20029;-80
2022/08/30 06:14:22;;;;;;;12.20;7.20;;;;;;;19.43;66.86;102291.66;6141039;23;20013;-80
2022/08/30 06:16:48;;;;;;;11.30;7.30;;;;;;;19.49;66.80;102288.16;6135598;23;20009;-79
2022/08/30 06:19:14;;;;;;;10.45;7.38;;;;;;;19.70;65.41;102285.44;6135488;23;20389;-83
2022/08/30 06:21:41;;;;;;;9.35;7.10;;;;;;;19.97;65.25;102281.00;6140053;23;20383;-80
2022/08/30 06:24:09;;;;;;;10.00;7.40;;;;;;;20.13;64.11;102290.63;6136596;23;20009;-79
2022/08/30 06:26:41;;;;;;;9.48;7.30;;;;;;;19.88;64.60;102284.56;6132283;23;20009;-77
2022/08/30 06:29:08;;;;;;;13.80;7.40;;;;;;;19.88;63.67;102292.50;6132889;23;20254;-77
2022/08/30 06:31:34;;;;;;;8.90;6.90;;;;;;;20.19;63.48;102291.50;6123977;23;20673;-77
2022/08/30 06:33:59;;;;;;;9.75;7.13;;;;;;;20.13;63.05;102291.50;6134329;23;20431;-77
2022/08/30 06:36:25;;;;;;;11.07;7.30;;;;;;;20.22;63.44;102285.31;6123361;23;20009;-77
2022/08/30 06:38:52;;;;;;;10.27;7.05;;;;;;;20.30;63.10;102285.28;6140867;23;20001;-78
2022/08/30 06:41:22;;;;;;;10.07;7.85;;;;;;;19.96;63.65;102288.03;6140967;23;20036;-78
2022/08/30 06:43:49;;;;;;;10.15;6.75;;;;;;;20.19;63.10;102286.19;6135395;23;20013;-78
2022/08/30 06:46:21;;;;;;;11.13;7.40;;;;;;;20.13;62.53;102286.22;6136437;23;20067;-80
2022/08/30 06:48:47;;;;;;;8.95;7.07;;;;;;;19.94;63.71;102281.91;6127641;23;20471;-78
2022/08/30 06:51:13;;;;;;;8.48;6.70;;;;;;;20.19;62.92;102285.31;6137176;23;20280;-79
2022/08/30 06:53:39;;;;;;;9.73;7.03;;;;;;;20.49;61.29;102281.72;6153375;23;20013;-78
2022/08/30 06:56:07;;;;;;;8.70;6.15;;;;;;;21.22;59.77;102289.19;6149918;23;20004;-78
2022/08/30 06:58:35;;;;;;;10.50;5.70;;;;;;;21.93;58.00;102279.66;6144437;23;20019;-80
2022/08/30 07:01:00;;;;;;;8.43;5.68;;;;;;;22.43;55.26;102277.28;6131532;23;20009;-78
2022/08/30 07:03:26;;;;;;;12.70;5.85;;;;;;;21.80;56.47;102270.94;6108094;23;20283;-79
2022/08/30 07:05:53;;;;;;;9.60;5.47;;;;;;;22.86;53.56;102274.94;6136570;23;20013;-78
2022/08/30 07:08:19;;;;;;;7.45;5.15;;;;;;;23.27;52.31;102276.91;6135691;23;20012;-78
2022/08/30 07:10:45;;;;;;;10.77;5.07;;;;;;;24.13;49.89;102263.78;6136833;23;20017;-80
2022/08/30 07:13:11;;;;;;;7.22;4.47;;;;;;;23.62;51.03;102273.66;6157631;23;20340;-79
2022/08/30 07:15:40;;;;;;;8.07;3.95;;;;;;;24.79;48.25;102270.34;6128696;23;20009;-80
2022/08/30 07:20:49;;;;;;;5.93;4.00;;;;;;;26.21;43.06;102263.03;6153985;23;20024;-80
2022/08/30 07:23:15;;;;;;;7.20;3.85;;;;;;;25.22;45.64;102280.88;6118503;23;20287;-79
2022/08/30 07:25:40;;;;;;;7.07;3.50;;;;;;;25.89;43.92;102273.78;6128739;23;20080;-80
2022/08/30 07:28:07;;;;;;;6.35;3.80;;;;;;;25.84;44.14;102273.91;6142795;23;20005;-81
2022/08/30 07:30:33;;;;;;;3.83;2.97;;;;;;;26.91;41.92;102271.59;6135678;23;20053;-80
2022/08/30 07:32:59;;;;;;;5.00;3.30;;;;;;;25.16;45.01;102286.38;6138956;23;20361;-80
2022/08/30 07:35:24;;;;;;;4.13;2.90;;;;;;;25.41;44.99;102283.03;6133379;23;20012;-80
2022/08/30 07:37:52;;;;;;;6.15;2.60;;;;;;;26.32;43.09;102284.13;6132374;23;20114;-80
2022/08/30 07:40:18;;;;;;;8.68;2.90;;;;;;;25.45;43.89;102279.38;6141226;23;20012;-80
2022/08/30 07:42:44;;;;;;;4.60;2.53;;;;;;;26.48;42.09;102285.41;6129612;23;20917;-79
2022/08/30 07:45:11;;;;;;;5.82;2.50;;;;;;;26.95;39.99;102289.31;6138710;23;20004;-80
2022/08/30 07:47:36;;;;;;;5.38;2.42;;;;;;;26.94;40.39;102276.88;6131588;23;20239;-80
2022/08/30 07:50:04;;;;;;;5.10;2.50;;;;;;;25.39;42.82;102286.66;6140827;23;20330;-80
2022/08/30 07:52:30;;;;;;;4.80;2.47;;;;;;;24.90;44.32;102287.88;6140864;23;20288;-80
2022/08/30 07:54:57;;;;;;;4.45;2.10;;;;;;;25.98;41.20;102289.56;6134407;23;20092;-80
2022/08/30 07:57:34;;;;;;;6.68;2.60;;;;;;;26.16;42.39;102294.38;6138323;23;20147;-81
2022/08/30 08:00:01;;;;;;;5.88;2.58;;;;;;;25.00;43.49;102293.88;6135544;23;20016;-80
2022/08/30 08:02:26;;;;;;;5.40;2.20;;;;;;;24.69;44.19;102303.47;6139810;23;20507;-81
2022/08/30 08:04:52;;;;;;;6.35;2.40;;;;;;;23.98;45.75;102290.72;6131359;23;20104;-79
2022/08/30 08:07:18;;;;;;;6.20;2.58;;;;;;;23.61;46.21;102301.19;6139238;23;20071;-79
2022/08/30 08:09:43;;;;;;;3.88;2.60;;;;;;;23.66;46.31;102293.13;6128935;23;20278;-79
2022/08/30 08:12:09;;;;;;;5.47;2.38;;;;;;;23.16;46.61;102301.94;6128706;23;20009;-79
2022/08/30 08:14:35;;;;;;;5.75;2.35;;;;;;;22.96;47.71;102302.25;6128915;23;20055;-79
2022/08/30 08:17:01;;;;;;;7.90;2.20;;;;;;;22.89;48.01;102306.78;6134536;23;20456;-79
2022/08/30 08:19:26;;;;;;;3.67;2.10;;;;;;;23.30;47.77;102298.13;6126070;23;20020;-79
2022/08/30 08:21:55;;;;;;;8.57;2.17;;;;;;;23.10;47.33;102310.03;6139409;23;20039;-79
2022/08/30 08:24:21;;;;;;;4.10;2.03;;;;;;;23.31;46.72;102299.91;6131409;23;20311;-79
2022/08/30 08:26:47;;;;;;;5.05;1.75;;;;;;;23.24;46.41;102294.69;6124816;23;20361;-80
2022/08/30 08:29:12;;;;;;;6.45;2.22;;;;;;;23.13;47.13;102294.00;6130591;23;20112;-79
2022/08/30 08:31:40;;;;;;;7.57;2.10;;;;;;;22.80;46.63;102298.06;6119170;23;20420;-79
2022/08/30 08:34:06;;;;;;;9.90;2.20;;;;;;;23.14;45.77;102295.75;6131148;23;20012;-80
2022/08/30 08:36:32;;;;;;;7.45;2.40;;;;;;;23.37;45.97;102290.94;6136419;23;20464;-80
2022/08/30 08:38:59;;;;;;;6.75;2.10;;;;;;;23.26;45.57;102298.22;6138240;23;20418;-80
2022/08/30 08:41:35;;;;;;;6.75;2.08;;;;;;;23.31;45.45;102289.25;6135094;23;20415;-80
2022/08/30 08:44:11;;;;;;;3.95;1.70;;;;;;;23.65;43.76;102291.38;6136589;23;20012;-80
2022/08/30 08:47:05;;;;;;;4.38;1.58;;;;;;;23.29;44.15;102292.88;6139642;23;20005;-79
2022/08/30 08:49:32;;;;;;;4.32;1.70;;;;;;;23.76;43.05;102298.25;6130836;23;20019;-80
2022/08/30 08:54:55;;;;;;;4.55;1.67;;;;;;;;;;6133567;23;20028;-80
2022/08/30 08:57:21;;;;;;;6.35;1.80;;;;;;;23.66;43.16;102293.13;6136468;23;20011;-80
2022/08/30 08:59:47;;;;;;;5.20;1.70;;;;;;;23.63;43.05;102299.38;6130372;23;20016;-80
2022/08/30 09:02:32;;;;;;;3.65;1.55;;;;;;;24.39;42.53;102300.56;6136494;23;20009;-79
2022/08/30 09:05:01;;;;;;;3.42;1.50;;;;;;;24.41;41.61;102304.06;6138980;23;20005;-79
2022/08/30 09:07:31;;;;;;;3.90;1.55;;;;;;;24.55;40.90;102298.44;6128041;23;20341;-78
2022/08/30 09:09:59;;;;;;;10.57;1.40;;;;;;;24.36;40.18;102292.63;6112477;23;20346;-80
2022/08/30 09:12:26;;;;;;;4.63;1.70;;;;;;;24.30;40.47;102294.53;6107563;23;20527;-78
2022/08/30 09:15:01;;;;;;;2.20;1.50;;;;;;;24.42;40.86;102292.50;6133950;23;20092;-80
2022/08/30 09:17:26;;;;;;;2.70;1.45;;;;;;;24.89;40.15;102286.09;6127834;23;20016;-77
2022/08/30 09:19:52;;;;;;;6.82;1.70;;;;;;;24.71;40.06;102296.28;6121054;23;20009;-81
2022/08/30 09:22:25;;;;;;;4.30;1.60;;;;;;;24.78;39.80;102292.56;6136859;23;20020;-78
2022/08/30 09:25:02;;;;;;;6.60;1.77;;;;;;;24.58;39.78;102291.25;6128234;23;20012;-78
2022/08/30 09:27:46;;;;;;;4.65;1.75;;;;;;;24.85;39.71;102299.53;6133576;23;20013;-77
2022/08/30 09:30:19;;;;;;;4.47;1.80;;;;;;;24.92;40.12;102296.72;6125753;23;20298;-78
2022/08/30 09:32:57;;;;;;;6.10;1.75;;;;;;;24.94;40.94;102297.59;6136215;23;20035;-78
2022/08/30 09:35:35;;;;;;;4.53;1.80;;;;;;;25.05;41.02;102294.66;6132740;23;20040;-78
2022/08/30 09:38:10;;;;;;;5.32;2.20;;;;;;;24.65;41.02;102299.97;6128656;23;20004;-78
2022/08/30 09:40:43;;;;;;;7.88;2.22;;;;;;;24.96;40.64;102293.06;6134492;23;20012;-77
2022/08/30 09:43:15;;;;;;;3.42;1.80;;;;;;;25.10;41.45;102307.88;6128865;23;20400;-78
2022/08/30 09:45:42;;;;;;;3.85;1.70;;;;;;;25.49;39.87;102290.88;6115951;23;20357;-77
2022/08/30 09:48:39;;;;;;;7.35;1.73;;;;;;;25.39;39.32;102286.66;6156832;23;20470;-77
2022/08/30 09:51:10;;;;;;;3.03;1.75;;;;;;;25.75;39.53;102295.50;6130849;23;20042;-78
2022/08/30 09:53:49;;;;;;;2.72;1.60;;;;;;;25.95;37.81;102293.19;6124415;23;20020;-77
2022/08/30 09:56:30;;;;;;;3.35;1.40;;;;;;;25.55;37.81;102289.81;6132909;23;20009;-77
2022/08/30 09:59:40;;;;;;;5.07;1.70;;;;;;;25.56;36.84;102295.09;6135710;23;20428;-77
2022/08/30 10:02:20;;;;;;;2.50;1.60;;;;;;;25.33;37.57;102292.16;6042838;23;20018;-77
2022/08/30 10:04:59;;;;;;;4.13;1.50;;;;;;;25.63;37.19;102296.72;6131896;23;20321;-78
2022/08/30 10:07:37;;;;;;;3.33;1.55;;;;;;;25.92;37.21;102292.41;6109604;23;20013;-77
2022/08/30 10:10:24;;;;;;;3.55;1.50;;;;;;;26.13;37.43;102297.13;6138520;23;20016;-77
2022/08/30 10:13:27;;;;;;;5.65;1.77;;;;;;;25.88;36.49;102285.38;6128557;23;20441;-77
2022/08/30 10:16:03;;;;;;;8.50;1.70;;;;;;;25.40;36.98;102302.66;6127583;23;20021;-77
2022/08/30 10:18:51;;;;;;;7.35;1.63;;;;;;;25.43;37.25;102291.03;6164669;23;20050;-78
2022/08/30 10:21:30;;;;;;;3.65;1.52;;;;;;;25.85;35.22;102289.03;6129016;23;20005;-77
2022/08/30 10:24:05;;;;;;;5.55;1.60;;;;;;;26.22;34.77;102289.72;6136668;23;20839;-78
2022/08/30 10:26:46;;;;;;;3.58;1.58;;;;;;;25.75;34.92;102298.19;6128580;23;20076;-78
2022/08/30 10:29:31;;;;;;;6.78;1.70;;;;;;;25.64;35.17;102289.59;6130958;23;20355;-78
2022/08/30 10:32:06;;;;;;;3.67;1.38;;;;;;;25.93;35.58;102294.13;6134771;23;20009;-80
2022/08/30 10:34:47;;;;;;;3.50;1.40;;;;;;;25.64;35.93;102282.47;6138087;23;20016;-80
2022/08/30 10:37:18;;;;;;;4.78;1.50;;;;;;;26.40;35.46;102299.03;6128639;23;20009;-77
2022/08/30 10:39:50;;;;;;;4.97;1.75;;;;;;;26.22;35.41;102297.75;6126569;23;20368;-77
2022/08/30 10:42:24;;;;;;;2.80;1.55;;;;;;;25.56;36.33;102296.88;6132361;23;20020;-77
2022/08/30 10:45:06;;;;;;;7.32;1.80;;;;;;;25.67;36.04;102301.09;6136784;23;20009;-79
2022/08/30 10:47:42;;;;;;;4.40;1.50;;;;;;;25.37;36.64;102289.34;6126441;23;20275;-78
2022/08/30 10:50:17;;;;;;;5.50;1.65;;;;;;;26.08;35.92;102297.25;6137744;23;20483;-78
2022/08/30 10:52:59;;;;;;;5.57;1.80;;;;;;;26.23;36.33;102295.94;6133188;23;20009;-77
2022/08/30 10:55:32;;;;;;;5.40;2.03;;;;;;;26.19;35.78;102302.28;6129098;23;20057;-78
2022/08/30 10:58:00;;;;;;;3.80;2.00;;;;;;;26.26;36.18;102295.88;6138919;23;20027;-78
2022/08/30 11:00:29;;;;;;;2.72;1.70;;;;;;;26.01;36.43;102289.47;6138790;23;20531;-78
2022/08/30 11:03:24;;;;;;;3.83;1.70;;;;;;;26.20;35.73;102301.38;6133473;23;20334;-79
2022/08/30 11:06:12;;;;;;;2.83;1.80;;;;;;;26.08;35.78;102294.59;6130838;23;20540;-79
2022/08/30 11:08:50;;;;;;;2.85;1.60;;;;;;;26.17;35.57;102290.75;6149605;23;20075;-78
2022/08/30 11:11:21;;;;;;;4.32;1.60;;;;;;;26.23;35.22;102294.16;6146586;23;20075;-77
2022/08/30 11:13:48;;;;;;;3.17;1.70;;;;;;;26.27;35.10;102289.63;6135982;23;20013;-77
2022/08/30 11:16:17;;;;;;;4.88;1.70;;;;;;;25.82;35.44;102289.97;6139026;23;20009;-76
2022/08/30 11:18:50;;;;;;;4.53;2.00;;;;;;;25.59;36.33;102292.41;6139357;23;20016;-76
2022/08/30 11:21:21;;;;;;;2.92;1.55;;;;;;;26.10;34.79;102292.75;6130872;23;20292;-78
2022/08/30 11:24:04;;;;;;;6.88;1.70;;;;;;;26.04;35.68;102295.63;6136075;23;20071;-78
2022/08/30 11:26:44;;;;;;;3.35;1.50;;;;;;;25.38;34.97;102290.22;6147000;23;20391;-77
2022/08/30 11:29:31;;;;;;;5.85;1.95;;;;;;;25.45;34.55;102297.19;6144491;23;20005;-78
2022/08/30 11:32:21;;;;;;;3.25;1.60;;;;;;;25.89;34.36;102292.47;6154431;23;20032;-77
2022/08/30 11:34:46;;;;;;;4.55;1.70;;;;;;;25.79;34.22;102287.41;6161265;23;20009;-77
2022/08/30 11:37:42;;;;;;;4.30;1.45;;;;;;;25.45;34.42;102292.72;6133545;23;20666;-77